sensor_id;sensor_type;location;lat;lon;timestamp;P1;durP1;ratioP1;P2;durP2;ratioP2
58446;SDS011;44240;51.840;7.258;2022-11-20T00:00:28;115.90;;;105.77;;
58446;SDS011;44240;51.840;7.258;2022-11-20T00:02:53;111.53;;;102.03;;
58446;SDS011;44240;51.840;7.258;2022-11-20T00:05:19;108.63;;;99.63;;
58446;SDS011;44240;51.840;7.258;2022-11-20T00:07:45;108.40;;;99.40;;
58446;SDS011;44240;51.840;7.258;2022-11-20T00:10:11;109.83;;;100.67;;
58446;SDS011;44240;51.840;7.258;2022-11-20T00:12:37;108.17;;;99.17;;
58446;SDS011;44240;51.840;7.258;2022-11-20T00:15:03;107.40;;;98.50;;
58446;SDS011;44240;51.840;7.258;2022-11-20T00:17:29;106.63;;;97.93;;
58446;SDS011;44240;51.840;7.258;2022-11-20T00:19:54;104.87;;;96.47;;
58446;SDS011;44240;51.840;7.258;2022-11-20T00:22:20;104.40;;;96.00;;
58446;SDS011;44240;51.840;7.258;2022-11-20T00:24:45;100.73;;;92.83;;
58446;SDS011;44240;51.840;7.258;2022-11-20T00:27:11;107.20;;;98.40;;
58446;SDS011;44240;51.840;7.258;2022-11-20T00:29:36;107.17;;;98.37;;
58446;SDS011;44240;51.840;7.258;2022-11-20T00:32:02;106.57;;;97.77;;
58446;SDS011;44240;51.840;7.258;2022-11-20T00:34:27;109.60;;;100.47;;
58446;SDS011;44240;51.840;7.258;2022-11-20T00:36:53;107.97;;;99.07;;
58446;SDS011;44240;51.840;7.258;2022-11-20T00:39:18;108.37;;;99.37;;
58446;SDS011;44240;51.840;7.258;2022-11-20T00:41:44;107.53;;;98.67;;
58446;SDS011;44240;51.840;7.258;2022-11-20T00:44:09;106.83;;;98.07;;
58446;SDS011;44240;51.840;7.258;2022-11-20T00:46:35;107.77;;;98.87;;
58446;SDS011;44240;51.840;7.258;2022-11-20T00:49:01;106.67;;;97.93;;
58446;SDS011;44240;51.840;7.258;2022-11-20T00:51:27;103.40;;;95.10;;
58446;SDS011;44240;51.840;7.258;2022-11-20T00:53:54;103.23;;;94.93;;
58446;SDS011;44240;51.840;7.258;2022-11-20T00:56:21;103.70;;;95.40;;
58446;SDS011;44240;51.840;7.258;2022-11-20T00:58:47;102.90;;;94.70;;
58446;SDS011;44240;51.840;7.258;2022-11-20T01:03:44;108.10;;;99.10;;
58446;SDS011;44240;51.840;7.258;2022-11-20T01:06:13;108.07;;;99.07;;
58446;SDS011;44240;51.840;7.258;2022-11-20T01:08:49;104.80;;;96.23;;
58446;SDS011;44240;51.840;7.258;2022-11-20T01:11:17;106.43;;;97.60;;
58446;SDS011;44240;51.840;7.258;2022-11-20T01:13:48;106.63;;;97.83;;
58446;SDS011;44240;51.840;7.258;2022-11-20T01:16:19;103.97;;;95.57;;
58446;SDS011;44240;51.840;7.258;2022-11-20T01:18:47;106.70;;;97.93;;
58446;SDS011;44240;51.840;7.258;2022-11-20T01:21:24;106.63;;;97.87;;
58446;SDS011;44240;51.840;7.258;2022-11-20T01:23:50;106.60;;;97.80;;
58446;SDS011;44240;51.840;7.258;2022-11-20T01:26:17;112.43;;;102.73;;
58446;SDS011;44240;51.840;7.258;2022-11-20T01:28:45;108.60;;;99.40;;
58446;SDS011;44240;51.840;7.258;2022-11-20T01:31:20;114.70;;;104.63;;
58446;SDS011;44240;51.840;7.258;2022-11-20T01:33:50;98.10;;;90.20;;
58446;SDS011;44240;51.840;7.258;2022-11-20T01:36:18;75.43;;;70.23;;
58446;SDS011;44240;51.840;7.258;2022-11-20T01:38:46;83.87;;;77.47;;
58446;SDS011;44240;51.840;7.258;2022-11-20T01:41:13;154.07;;;131.50;;
58446;SDS011;44240;51.840;7.258;2022-11-20T01:43:59;146.47;;;130.23;;
58446;SDS011;44240;51.840;7.258;2022-11-20T01:46:26;144.13;;;128.43;;
58446;SDS011;44240;51.840;7.258;2022-11-20T01:48:54;140.10;;;125.13;;
58446;SDS011;44240;51.840;7.258;2022-11-20T01:51:26;132.23;;;118.77;;
58446;SDS011;44240;51.840;7.258;2022-11-20T01:54:01;137.53;;;123.03;;
58446;SDS011;44240;51.840;7.258;2022-11-20T01:56:31;143.93;;;128.23;;
58446;SDS011;44240;51.840;7.258;2022-11-20T01:59:02;157.60;;;133.40;;
58446;SDS011;44240;51.840;7.258;2022-11-20T02:01:30;165.53;;;136.73;;
58446;SDS011;44240;51.840;7.258;2022-11-20T02:03:55;162.03;;;135.17;;
58446;SDS011;44240;51.840;7.258;2022-11-20T02:06:44;177.10;;;141.47;;
58446;SDS011;44240;51.840;7.258;2022-11-20T02:09:09;179.97;;;142.93;;
58446;SDS011;44240;51.840;7.258;2022-11-20T02:11:35;186.43;;;145.37;;
58446;SDS011;44240;51.840;7.258;2022-11-20T02:14:00;185.20;;;145.10;;
58446;SDS011;44240;51.840;7.258;2022-11-20T02:16:39;183.73;;;145.03;;
58446;SDS011;44240;51.840;7.258;2022-11-20T02:19:12;187.87;;;146.13;;
58446;SDS011;44240;51.840;7.258;2022-11-20T02:24:39;193.47;;;148.37;;
58446;SDS011;44240;51.840;7.258;2022-11-20T02:27:07;186.43;;;143.83;;
58446;SDS011;44240;51.840;7.258;2022-11-20T02:35:38;182.47;;;143.10;;
58446;SDS011;44240;51.840;7.258;2022-11-20T02:37:56;173.77;;;138.63;;
58446;SDS011;44240;51.840;7.258;2022-11-20T02:40:24;175.13;;;139.77;;
58446;SDS011;44240;51.840;7.258;2022-11-20T02:42:53;172.30;;;137.40;;
58446;SDS011;44240;51.840;7.258;2022-11-20T02:45:19;177.27;;;141.50;;
58446;SDS011;44240;51.840;7.258;2022-11-20T02:47:45;174.50;;;139.43;;
58446;SDS011;44240;51.840;7.258;2022-11-20T02:50:10;171.20;;;138.13;;
58446;SDS011;44240;51.840;7.258;2022-11-20T02:52:36;170.57;;;138.57;;
58446;SDS011;44240;51.840;7.258;2022-11-20T02:55:02;169.03;;;138.17;;
58446;SDS011;44240;51.840;7.258;2022-11-20T02:57:28;160.73;;;133.90;;
58446;SDS011;44240;51.840;7.258;2022-11-20T02:59:54;160.80;;;134.43;;
58446;SDS011;44240;51.840;7.258;2022-11-20T03:02:19;161.70;;;135.23;;
58446;SDS011;44240;51.840;7.258;2022-11-20T03:04:45;159.70;;;134.53;;
58446;SDS011;44240;51.840;7.258;2022-11-20T03:07:11;152.70;;;132.33;;
58446;SDS011;44240;51.840;7.258;2022-11-20T03:09:36;160.50;;;135.17;;
58446;SDS011;44240;51.840;7.258;2022-11-20T03:12:02;161.87;;;135.27;;
58446;SDS011;44240;51.840;7.258;2022-11-20T03:14:28;164.23;;;135.83;;
58446;SDS011;44240;51.840;7.258;2022-11-20T03:16:53;163.70;;;135.63;;
58446;SDS011;44240;51.840;7.258;2022-11-20T03:19:19;169.00;;;137.23;;
58446;SDS011;44240;51.840;7.258;2022-11-20T03:21:45;166.47;;;135.07;;
58446;SDS011;44240;51.840;7.258;2022-11-20T03:24:10;165.70;;;136.50;;
58446;SDS011;44240;51.840;7.258;2022-11-20T03:26:37;160.07;;;134.83;;
58446;SDS011;44240;51.840;7.258;2022-11-20T03:29:03;157.13;;;132.63;;
58446;SDS011;44240;51.840;7.258;2022-11-20T03:31:31;157.83;;;134.40;;
58446;SDS011;44240;51.840;7.258;2022-11-20T03:34:00;152.60;;;132.13;;
58446;SDS011;44240;51.840;7.258;2022-11-20T03:36:27;150.03;;;130.73;;
58446;SDS011;44240;51.840;7.258;2022-11-20T03:38:54;149.97;;;131.13;;
58446;SDS011;44240;51.840;7.258;2022-11-20T03:41:25;155.87;;;133.57;;
58446;SDS011;44240;51.840;7.258;2022-11-20T03:43:53;156.97;;;133.57;;
58446;SDS011;44240;51.840;7.258;2022-11-20T03:46:20;151.70;;;132.20;;
58446;SDS011;44240;51.840;7.258;2022-11-20T03:48:46;152.03;;;132.37;;
58446;SDS011;44240;51.840;7.258;2022-11-20T03:53:46;147.60;;;130.30;;
58446;SDS011;44240;51.840;7.258;2022-11-20T03:56:13;144.20;;;128.27;;
58446;SDS011;44240;51.840;7.258;2022-11-20T03:58:41;143.90;;;128.10;;
58446;SDS011;44240;51.840;7.258;2022-11-20T04:01:08;143.40;;;127.77;;
58446;SDS011;44240;51.840;7.258;2022-11-20T04:03:35;142.07;;;126.60;;
58446;SDS011;44240;51.840;7.258;2022-11-20T04:06:03;145.77;;;129.67;;
58446;SDS011;44240;51.840;7.258;2022-11-20T04:08:37;145.67;;;129.63;;
58446;SDS011;44240;51.840;7.258;2022-11-20T04:11:09;143.73;;;127.97;;
58446;SDS011;44240;51.840;7.258;2022-11-20T04:13:36;144.03;;;128.30;;
58446;SDS011;44240;51.840;7.258;2022-11-20T04:16:03;144.33;;;128.57;;
58446;SDS011;44240;51.840;7.258;2022-11-20T04:18:30;143.53;;;127.87;;
58446;SDS011;44240;51.840;7.258;2022-11-20T04:20:58;143.33;;;127.77;;
58446;SDS011;44240;51.840;7.258;2022-11-20T04:23:24;140.13;;;125.00;;
58446;SDS011;44240;51.840;7.258;2022-11-20T04:25:51;141.03;;;125.80;;
58446;SDS011;44240;51.840;7.258;2022-11-20T04:28:17;141.37;;;126.07;;
58446;SDS011;44240;51.840;7.258;2022-11-20T04:30:43;144.13;;;128.40;;
58446;SDS011;44240;51.840;7.258;2022-11-20T04:33:08;144.13;;;128.33;;
58446;SDS011;44240;51.840;7.258;2022-11-20T04:35:34;142.47;;;126.97;;
58446;SDS011;44240;51.840;7.258;2022-11-20T04:38:01;141.90;;;126.50;;
58446;SDS011;44240;51.840;7.258;2022-11-20T04:40:30;137.37;;;122.67;;
58446;SDS011;44240;51.840;7.258;2022-11-20T04:42:55;139.50;;;124.60;;
58446;SDS011;44240;51.840;7.258;2022-11-20T04:45:23;139.17;;;124.37;;
58446;SDS011;44240;51.840;7.258;2022-11-20T04:47:48;138.20;;;123.60;;
58446;SDS011;44240;51.840;7.258;2022-11-20T04:50:14;136.83;;;122.43;;
58446;SDS011;44240;51.840;7.258;2022-11-20T04:52:40;138.60;;;123.87;;
58446;SDS011;44240;51.840;7.258;2022-11-20T04:55:05;139.70;;;124.57;;
58446;SDS011;44240;51.840;7.258;2022-11-20T04:57:31;140.77;;;125.47;;
58446;SDS011;44240;51.840;7.258;2022-11-20T04:59:57;142.80;;;127.27;;
58446;SDS011;44240;51.840;7.258;2022-11-20T05:02:22;140.83;;;125.67;;
58446;SDS011;44240;51.840;7.258;2022-11-20T05:04:48;141.07;;;125.67;;
58446;SDS011;44240;51.840;7.258;2022-11-20T05:07:13;143.50;;;127.77;;
58446;SDS011;44240;51.840;7.258;2022-11-20T05:09:39;143.10;;;127.30;;
58446;SDS011;44240;51.840;7.258;2022-11-20T05:12:06;144.03;;;128.13;;
58446;SDS011;44240;51.840;7.258;2022-11-20T05:14:32;142.60;;;126.90;;
58446;SDS011;44240;51.840;7.258;2022-11-20T05:16:58;143.87;;;128.10;;
58446;SDS011;44240;51.840;7.258;2022-11-20T05:19:23;143.03;;;127.23;;
58446;SDS011;44240;51.840;7.258;2022-11-20T05:21:49;144.63;;;128.53;;
58446;SDS011;44240;51.840;7.258;2022-11-20T05:24:14;144.50;;;128.53;;
58446;SDS011;44240;51.840;7.258;2022-11-20T05:26:40;143.80;;;128.07;;
58446;SDS011;44240;51.840;7.258;2022-11-20T05:29:05;141.70;;;126.23;;
58446;SDS011;44240;51.840;7.258;2022-11-20T05:31:31;142.53;;;127.03;;
58446;SDS011;44240;51.840;7.258;2022-11-20T05:33:57;142.60;;;127.10;;
58446;SDS011;44240;51.840;7.258;2022-11-20T05:36:22;140.57;;;125.40;;
58446;SDS011;44240;51.840;7.258;2022-11-20T05:38:48;138.93;;;124.03;;
58446;SDS011;44240;51.840;7.258;2022-11-20T05:41:15;135.50;;;121.27;;
58446;SDS011;44240;51.840;7.258;2022-11-20T05:43:43;137.23;;;122.73;;
58446;SDS011;44240;51.840;7.258;2022-11-20T05:46:10;135.03;;;120.93;;
58446;SDS011;44240;51.840;7.258;2022-11-20T05:48:38;125.43;;;113.20;;
58446;SDS011;44240;51.840;7.258;2022-11-20T05:51:05;136.60;;;122.13;;
58446;SDS011;44240;51.840;7.258;2022-11-20T05:53:33;135.63;;;121.37;;
58446;SDS011;44240;51.840;7.258;2022-11-20T05:56:00;128.70;;;115.67;;
58446;SDS011;44240;51.840;7.258;2022-11-20T05:58:26;129.70;;;116.50;;
58446;SDS011;44240;51.840;7.258;2022-11-20T06:00:52;131.30;;;117.93;;
58446;SDS011;44240;51.840;7.258;2022-11-20T06:03:18;130.07;;;116.90;;
58446;SDS011;44240;51.840;7.258;2022-11-20T06:05:44;132.60;;;119.00;;
58446;SDS011;44240;51.840;7.258;2022-11-20T06:08:09;131.27;;;117.87;;
58446;SDS011;44240;51.840;7.258;2022-11-20T06:10:35;133.57;;;119.77;;
58446;SDS011;44240;51.840;7.258;2022-11-20T06:13:00;133.07;;;119.37;;
58446;SDS011;44240;51.840;7.258;2022-11-20T06:15:26;141.57;;;126.27;;
58446;SDS011;44240;51.840;7.258;2022-11-20T06:17:54;138.03;;;123.23;;
58446;SDS011;44240;51.840;7.258;2022-11-20T06:20:20;138.03;;;123.33;;
58446;SDS011;44240;51.840;7.258;2022-11-20T06:22:46;139.27;;;124.30;;
58446;SDS011;44240;51.840;7.258;2022-11-20T06:25:12;137.80;;;123.20;;
58446;SDS011;44240;51.840;7.258;2022-11-20T06:27:38;135.83;;;121.50;;
58446;SDS011;44240;51.840;7.258;2022-11-20T06:30:04;134.27;;;120.30;;
58446;SDS011;44240;51.840;7.258;2022-11-20T06:32:30;133.00;;;119.30;;
58446;SDS011;44240;51.840;7.258;2022-11-20T06:34:55;131.03;;;117.63;;
58446;SDS011;44240;51.840;7.258;2022-11-20T06:37:21;131.40;;;118.00;;
58446;SDS011;44240;51.840;7.258;2022-11-20T06:39:46;128.27;;;115.40;;
58446;SDS011;44240;51.840;7.258;2022-11-20T06:42:12;128.60;;;115.80;;
58446;SDS011;44240;51.840;7.258;2022-11-20T06:44:37;125.70;;;113.40;;
58446;SDS011;44240;51.840;7.258;2022-11-20T06:47:03;125.73;;;113.43;;
58446;SDS011;44240;51.840;7.258;2022-11-20T06:49:28;125.80;;;113.57;;
58446;SDS011;44240;51.840;7.258;2022-11-20T06:51:54;124.20;;;112.27;;
58446;SDS011;44240;51.840;7.258;2022-11-20T06:54:19;122.70;;;111.03;;
58446;SDS011;44240;51.840;7.258;2022-11-20T06:56:48;121.53;;;110.03;;
58446;SDS011;44240;51.840;7.258;2022-11-20T06:59:14;122.30;;;110.70;;
58446;SDS011;44240;51.840;7.258;2022-11-20T07:01:39;120.67;;;109.33;;
58446;SDS011;44240;51.840;7.258;2022-11-20T07:04:05;122.77;;;111.13;;
58446;SDS011;44240;51.840;7.258;2022-11-20T07:06:30;129.20;;;116.23;;
58446;SDS011;44240;51.840;7.258;2022-11-20T07:08:56;130.30;;;117.17;;
58446;SDS011;44240;51.840;7.258;2022-11-20T07:11:22;130.10;;;117.03;;
58446;SDS011;44240;51.840;7.258;2022-11-20T07:13:48;130.63;;;117.33;;
58446;SDS011;44240;51.840;7.258;2022-11-20T07:16:14;130.17;;;117.07;;
58446;SDS011;44240;51.840;7.258;2022-11-20T07:18:40;130.23;;;117.10;;
58446;SDS011;44240;51.840;7.258;2022-11-20T07:21:06;131.57;;;118.13;;
58446;SDS011;44240;51.840;7.258;2022-11-20T07:23:34;128.90;;;116.07;;
58446;SDS011;44240;51.840;7.258;2022-11-20T07:26:07;134.50;;;120.50;;
58446;SDS011;44240;51.840;7.258;2022-11-20T07:28:34;137.33;;;122.87;;
58446;SDS011;44240;51.840;7.258;2022-11-20T07:30:59;134.67;;;120.70;;
58446;SDS011;44240;51.840;7.258;2022-11-20T07:33:25;136.57;;;122.07;;
58446;SDS011;44240;51.840;7.258;2022-11-20T07:35:51;137.53;;;122.83;;
58446;SDS011;44240;51.840;7.258;2022-11-20T07:38:16;133.77;;;119.87;;
58446;SDS011;44240;51.840;7.258;2022-11-20T07:44:04;138.07;;;123.33;;
58446;SDS011;44240;51.840;7.258;2022-11-20T07:46:29;139.40;;;124.47;;
58446;SDS011;44240;51.840;7.258;2022-11-20T07:48:55;139.03;;;124.17;;
58446;SDS011;44240;51.840;7.258;2022-11-20T07:51:21;138.33;;;123.63;;
58446;SDS011;44240;51.840;7.258;2022-11-20T07:53:47;137.80;;;123.13;;
58446;SDS011;44240;51.840;7.258;2022-11-20T07:56:12;138.83;;;124.03;;
58446;SDS011;44240;51.840;7.258;2022-11-20T07:58:39;136.47;;;122.03;;
58446;SDS011;44240;51.840;7.258;2022-11-20T08:01:05;137.70;;;123.13;;
58446;SDS011;44240;51.840;7.258;2022-11-20T08:03:31;138.93;;;124.17;;
58446;SDS011;44240;51.840;7.258;2022-11-20T08:06:00;134.43;;;120.33;;
58446;SDS011;44240;51.840;7.258;2022-11-20T08:08:26;137.53;;;122.83;;
58446;SDS011;44240;51.840;7.258;2022-11-20T08:10:53;139.83;;;124.93;;
58446;SDS011;44240;51.840;7.258;2022-11-20T08:13:38;136.90;;;122.40;;
58446;SDS011;44240;51.840;7.258;2022-11-20T08:16:23;138.32;;;123.68;;
58446;SDS011;44240;51.840;7.258;2022-11-20T08:18:48;137.50;;;123.00;;
58446;SDS011;44240;51.840;7.258;2022-11-20T08:21:14;135.90;;;121.70;;
58446;SDS011;44240;51.840;7.258;2022-11-20T08:23:40;134.20;;;120.30;;
58446;SDS011;44240;51.840;7.258;2022-11-20T08:26:05;131.73;;;118.27;;
58446;SDS011;44240;51.840;7.258;2022-11-20T08:28:31;137.70;;;123.20;;
58446;SDS011;44240;51.840;7.258;2022-11-20T08:31:00;135.63;;;121.43;;
58446;SDS011;44240;51.840;7.258;2022-11-20T08:33:26;138.23;;;123.63;;
58446;SDS011;44240;51.840;7.258;2022-11-20T08:35:52;135.23;;;121.07;;
58446;SDS011;44240;51.840;7.258;2022-11-20T08:38:17;136.47;;;122.17;;
58446;SDS011;44240;51.840;7.258;2022-11-20T08:40:43;132.37;;;118.77;;
58446;SDS011;44240;51.840;7.258;2022-11-20T08:43:31;132.27;;;118.77;;
58446;SDS011;44240;51.840;7.258;2022-11-20T08:45:57;130.70;;;117.57;;
58446;SDS011;44240;51.840;7.258;2022-11-20T08:48:22;131.63;;;118.37;;
58446;SDS011;44240;51.840;7.258;2022-11-20T08:50:48;130.97;;;117.80;;
58446;SDS011;44240;51.840;7.258;2022-11-20T08:53:13;128.43;;;115.57;;
58446;SDS011;44240;51.840;7.258;2022-11-20T08:55:39;130.97;;;117.77;;
58446;SDS011;44240;51.840;7.258;2022-11-20T08:58:05;130.17;;;117.10;;
58446;SDS011;44240;51.840;7.258;2022-11-20T09:00:32;127.40;;;114.73;;
58446;SDS011;44240;51.840;7.258;2022-11-20T09:02:58;126.27;;;113.83;;
58446;SDS011;44240;51.840;7.258;2022-11-20T09:05:25;127.13;;;114.67;;
58446;SDS011;44240;51.840;7.258;2022-11-20T09:07:51;125.63;;;113.37;;
58446;SDS011;44240;51.840;7.258;2022-11-20T09:10:17;125.30;;;113.17;;
58446;SDS011;44240;51.840;7.258;2022-11-20T09:12:42;126.47;;;114.00;;
58446;SDS011;44240;51.840;7.258;2022-11-20T09:15:08;127.80;;;115.23;;
58446;SDS011;44240;51.840;7.258;2022-11-20T09:17:34;128.03;;;115.37;;
58446;SDS011;44240;51.840;7.258;2022-11-20T09:19:59;127.13;;;114.60;;
58446;SDS011;44240;51.840;7.258;2022-11-20T09:22:25;127.87;;;115.23;;
58446;SDS011;44240;51.840;7.258;2022-11-20T09:24:50;129.43;;;116.57;;
58446;SDS011;44240;51.840;7.258;2022-11-20T09:27:16;131.03;;;117.83;;
58446;SDS011;44240;51.840;7.258;2022-11-20T09:29:46;129.07;;;116.27;;
58446;SDS011;44240;51.840;7.258;2022-11-20T09:32:11;130.50;;;117.40;;
58446;SDS011;44240;51.840;7.258;2022-11-20T09:34:37;130.30;;;117.20;;
58446;SDS011;44240;51.840;7.258;2022-11-20T09:37:03;128.30;;;115.63;;
58446;SDS011;44240;51.840;7.258;2022-11-20T09:39:28;128.60;;;115.90;;
58446;SDS011;44240;51.840;7.258;2022-11-20T09:42:15;128.30;;;115.60;;
58446;SDS011;44240;51.840;7.258;2022-11-20T09:50:49;125.10;;;112.87;;
58446;SDS011;44240;51.840;7.258;2022-11-20T09:56:11;127.97;;;115.40;;
58446;SDS011;44240;51.840;7.258;2022-11-20T09:58:41;126.97;;;114.53;;
58446;SDS011;44240;51.840;7.258;2022-11-20T10:01:19;125.83;;;113.60;;
58446;SDS011;44240;51.840;7.258;2022-11-20T10:03:50;128.73;;;115.97;;
58446;SDS011;44240;51.840;7.258;2022-11-20T10:06:47;127.83;;;115.30;;
58446;SDS011;44240;51.840;7.258;2022-11-20T10:09:34;125.83;;;113.63;;
58446;SDS011;44240;51.840;7.258;2022-11-20T10:12:05;126.80;;;114.53;;
58446;SDS011;44240;51.840;7.258;2022-11-20T10:15:10;126.63;;;114.23;;
58446;SDS011;44240;51.840;7.258;2022-11-20T10:26:31;128.70;;;115.93;;
58446;SDS011;44240;51.840;7.258;2022-11-20T10:31:38;127.07;;;114.70;;
58446;SDS011;44240;51.840;7.258;2022-11-20T10:34:07;130.20;;;117.17;;
58446;SDS011;44240;51.840;7.258;2022-11-20T10:36:42;128.87;;;116.07;;
58446;SDS011;44240;51.840;7.258;2022-11-20T10:42:00;130.77;;;117.67;;
58446;SDS011;44240;51.840;7.258;2022-11-20T10:44:27;131.97;;;118.60;;
58446;SDS011;44240;51.840;7.258;2022-11-20T10:47:13;137.10;;;122.80;;
58446;SDS011;44240;51.840;7.258;2022-11-20T10:49:42;140.73;;;125.63;;
58446;SDS011;44240;51.840;7.258;2022-11-20T11:00:13;140.40;;;125.40;;
58446;SDS011;44240;51.840;7.258;2022-11-20T11:03:00;137.60;;;122.97;;
58446;SDS011;44240;51.840;7.258;2022-11-20T11:08:12;140.97;;;125.97;;
58446;SDS011;44240;51.840;7.258;2022-11-20T11:13:28;140.67;;;125.67;;
58446;SDS011;44240;51.840;7.258;2022-11-20T11:15:55;140.13;;;125.17;;
58446;SDS011;44240;51.840;7.258;2022-11-20T11:18:25;142.53;;;127.17;;
58446;SDS011;44240;51.840;7.258;2022-11-20T11:20:53;140.47;;;125.43;;
58446;SDS011;44240;51.840;7.258;2022-11-20T11:23:36;140.37;;;125.47;;
58446;SDS011;44240;51.840;7.258;2022-11-20T11:28:57;141.50;;;126.37;;
58446;SDS011;44240;51.840;7.258;2022-11-20T11:31:31;140.43;;;125.53;;
58446;SDS011;44240;51.840;7.258;2022-11-20T11:34:10;140.47;;;125.57;;
58446;SDS011;44240;51.840;7.258;2022-11-20T11:36:38;140.60;;;125.80;;
58446;SDS011;44240;51.840;7.258;2022-11-20T11:39:04;140.07;;;125.33;;
58446;SDS011;44240;51.840;7.258;2022-11-20T11:41:35;141.27;;;126.30;;
58446;SDS011;44240;51.840;7.258;2022-11-20T11:44:17;141.90;;;126.73;;
58446;SDS011;44240;51.840;7.258;2022-11-20T11:47:05;142.87;;;127.37;;
58446;SDS011;44240;51.840;7.258;2022-11-20T11:49:46;145.13;;;129.40;;
58446;SDS011;44240;51.840;7.258;2022-11-20T11:52:13;152.70;;;133.40;;
58446;SDS011;44240;51.840;7.258;2022-11-20T11:57:32;146.67;;;130.27;;
58446;SDS011;44240;51.840;7.258;2022-11-20T12:00:15;146.67;;;130.37;;
58446;SDS011;44240;51.840;7.258;2022-11-20T12:02:49;146.60;;;130.47;;
58446;SDS011;44240;51.840;7.258;2022-11-20T12:05:57;144.97;;;129.13;;
58446;SDS011;44240;51.840;7.258;2022-11-20T12:11:11;144.70;;;128.97;;
58446;SDS011;44240;51.840;7.258;2022-11-20T12:13:53;147.73;;;131.43;;
58446;SDS011;44240;51.840;7.258;2022-11-20T12:16:30;148.10;;;131.30;;
58446;SDS011;44240;51.840;7.258;2022-11-20T12:19:01;146.40;;;130.33;;
58446;SDS011;44240;51.840;7.258;2022-11-20T12:22:16;144.87;;;129.23;;
58446;SDS011;44240;51.840;7.258;2022-11-20T12:29:25;145.17;;;129.40;;
58446;SDS011;44240;51.840;7.258;2022-11-20T12:47:29;156.37;;;134.73;;
58446;SDS011;44240;51.840;7.258;2022-11-20T12:50:32;165.40;;;138.33;;
58446;SDS011;44240;51.840;7.258;2022-11-20T12:56:17;167.60;;;138.97;;
58446;SDS011;44240;51.840;7.258;2022-11-20T13:04:58;164.17;;;137.40;;
58446;SDS011;44240;51.840;7.258;2022-11-20T13:07:43;159.70;;;136.20;;
58446;SDS011;44240;51.840;7.258;2022-11-20T13:13:03;154.73;;;134.17;;
58446;SDS011;44240;51.840;7.258;2022-11-20T13:15:43;152.23;;;133.37;;
58446;SDS011;44240;51.840;7.258;2022-11-20T13:18:15;153.43;;;133.77;;
58446;SDS011;44240;51.840;7.258;2022-11-20T13:20:42;157.20;;;134.60;;
58446;SDS011;44240;51.840;7.258;2022-11-20T13:23:09;162.93;;;136.67;;
58446;SDS011;44240;51.840;7.258;2022-11-20T13:25:36;159.13;;;135.30;;
58446;SDS011;44240;51.840;7.258;2022-11-20T13:28:04;156.10;;;134.70;;
58446;SDS011;44240;51.840;7.258;2022-11-20T13:30:51;155.47;;;134.33;;
58446;SDS011;44240;51.840;7.258;2022-11-20T13:36:00;151.30;;;133.23;;
58446;SDS011;44240;51.840;7.258;2022-11-20T13:38:27;148.23;;;131.07;;
58446;SDS011;44240;51.840;7.258;2022-11-20T13:45:59;148.43;;;131.83;;
58446;SDS011;44240;51.840;7.258;2022-11-20T13:48:34;146.43;;;130.50;;
58446;SDS011;44240;51.840;7.258;2022-11-20T13:53:45;144.97;;;129.30;;
58446;SDS011;44240;51.840;7.258;2022-11-20T13:56:24;145.00;;;129.43;;
58446;SDS011;44240;51.840;7.258;2022-11-20T14:01:38;145.60;;;129.97;;
58446;SDS011;44240;51.840;7.258;2022-11-20T14:04:07;145.80;;;130.03;;
58446;SDS011;44240;51.840;7.258;2022-11-20T14:06:38;144.07;;;128.63;;
58446;SDS011;44240;51.840;7.258;2022-11-20T14:09:12;145.25;;;129.75;;
58446;SDS011;44240;51.840;7.258;2022-11-20T14:11:49;144.07;;;128.63;;
58446;SDS011;44240;51.840;7.258;2022-11-20T14:14:27;142.47;;;127.30;;
58446;SDS011;44240;51.840;7.258;2022-11-20T14:17:05;144.80;;;129.43;;
58446;SDS011;44240;51.840;7.258;2022-11-20T14:19:32;140.57;;;125.70;;
58446;SDS011;44240;51.840;7.258;2022-11-20T14:24:43;141.40;;;126.63;;
58446;SDS011;44240;51.840;7.258;2022-11-20T14:27:14;138.60;;;124.00;;
58446;SDS011;44240;51.840;7.258;2022-11-20T14:29:41;139.97;;;125.33;;
58446;SDS011;44240;51.840;7.258;2022-11-20T14:32:08;139.73;;;125.20;;
58446;SDS011;44240;51.840;7.258;2022-11-20T14:34:39;139.27;;;124.77;;
58446;SDS011;44240;51.840;7.258;2022-11-20T14:37:09;146.47;;;130.23;;
58446;SDS011;44240;51.840;7.258;2022-11-20T14:39:40;166.10;;;137.83;;
58446;SDS011;44240;51.840;7.258;2022-11-20T14:42:26;159.60;;;136.43;;
58446;SDS011;44240;51.840;7.258;2022-11-20T14:44:54;155.37;;;133.47;;
58446;SDS011;44240;51.840;7.258;2022-11-20T14:47:22;149.80;;;132.87;;
58446;SDS011;44240;51.840;7.258;2022-11-20T14:49:56;144.13;;;128.27;;
58446;SDS011;44240;51.840;7.258;2022-11-20T14:52:24;145.27;;;129.37;;
